sensor_id;sensor_type;location;lat;lon;timestamp;temperature;humidity
64937;SHT30;51452;47.698;19.050;2022-08-03T00:00:43;23.96;58.60
64937;SHT30;51452;47.698;19.050;2022-08-03T00:03:08;23.96;58.44
64937;SHT30;51452;47.698;19.050;2022-08-03T00:05:33;23.93;59.16
64937;SHT30;51452;47.698;19.050;2022-08-03T00:07:59;23.93;59.56
64937;SHT30;51452;47.698;19.050;2022-08-03T00:10:25;23.83;59.18
64937;SHT30;51452;47.698;19.050;2022-08-03T00:12:51;23.87;58.92
64937;SHT30;51452;47.698;19.050;2022-08-03T00:15:17;23.86;59.30
64937;SHT30;51452;47.698;19.050;2022-08-03T00:17:43;23.89;59.52
64937;SHT30;51452;47.698;19.050;2022-08-03T00:20:09;23.83;59.50
64937;SHT30;51452;47.698;19.050;2022-08-03T00:22:34;23.77;59.22
64937;SHT30;51452;47.698;19.050;2022-08-03T00:25:00;23.76;59.79
64937;SHT30;51452;47.698;19.050;2022-08-03T00:27:25;23.70;59.88
64937;SHT30;51452;47.698;19.050;2022-08-03T00:29:50;23.66;59.44
64937;SHT30;51452;47.698;19.050;2022-08-03T00:32:15;23.65;60.05
64937;SHT30;51452;47.698;19.050;2022-08-03T00:34:41;23.65;59.54
64937;SHT30;51452;47.698;19.050;2022-08-03T00:37:06;23.58;59.93
64937;SHT30;51452;47.698;19.050;2022-08-03T00:39:32;23.58;60.19
64937;SHT30;51452;47.698;19.050;2022-08-03T00:42:01;23.58;59.23
64937;SHT30;51452;47.698;19.050;2022-08-03T00:44:26;23.55;59.94
64937;SHT30;51452;47.698;19.050;2022-08-03T00:46:51;23.54;60.18
64937;SHT30;51452;47.698;19.050;2022-08-03T00:49:17;23.48;60.30
64937;SHT30;51452;47.698;19.050;2022-08-03T00:51:42;23.55;59.86
64937;SHT30;51452;47.698;19.050;2022-08-03T00:54:08;23.49;59.87
64937;SHT30;51452;47.698;19.050;2022-08-03T00:56:34;23.44;60.40
64937;SHT30;51452;47.698;19.050;2022-08-03T00:59:02;23.42;61.30
64937;SHT30;51452;47.698;19.050;2022-08-03T01:01:27;23.39;61.21
64937;SHT30;51452;47.698;19.050;2022-08-03T01:03:52;23.39;60.88
64937;SHT30;51452;47.698;19.050;2022-08-03T01:06:35;23.27;60.81
64937;SHT30;51452;47.698;19.050;2022-08-03T01:09:17;23.31;61.35
64937;SHT30;51452;47.698;19.050;2022-08-03T01:14:13;23.25;60.91
64937;SHT30;51452;47.698;19.050;2022-08-03T01:16:59;23.19;61.19
64937;SHT30;51452;47.698;19.050;2022-08-03T01:22:31;23.19;61.14
64937;SHT30;51452;47.698;19.050;2022-08-03T01:25:23;23.17;61.52
64937;SHT30;51452;47.698;19.050;2022-08-03T01:31:17;23.15;61.77
64937;SHT30;51452;47.698;19.050;2022-08-03T01:33:51;23.17;61.54
64937;SHT30;51452;47.698;19.050;2022-08-03T01:36:23;23.12;62.38
64937;SHT30;51452;47.698;19.050;2022-08-03T01:38:54;23.12;62.39
64937;SHT30;51452;47.698;19.050;2022-08-03T01:41:25;23.10;61.71
64937;SHT30;51452;47.698;19.050;2022-08-03T01:43:56;23.12;61.77
64937;SHT30;51452;47.698;19.050;2022-08-03T01:46:24;23.11;61.80
64937;SHT30;51452;47.698;19.050;2022-08-03T01:48:51;23.07;61.91
64937;SHT30;51452;47.698;19.050;2022-08-03T01:51:18;23.08;62.19
64937;SHT30;51452;47.698;19.050;2022-08-03T01:53:46;23.10;62.17
64937;SHT30;51452;47.698;19.050;2022-08-03T01:56:13;23.05;62.82
64937;SHT30;51452;47.698;19.050;2022-08-03T01:58:40;23.05;62.61
64937;SHT30;51452;47.698;19.050;2022-08-03T02:01:08;23.05;63.67
64937;SHT30;51452;47.698;19.050;2022-08-03T02:03:37;23.00;64.66
64937;SHT30;51452;47.698;19.050;2022-08-03T02:06:04;23.00;64.62
64937;SHT30;51452;47.698;19.050;2022-08-03T02:08:31;22.96;64.91
64937;SHT30;51452;47.698;19.050;2022-08-03T02:10:58;22.88;65.78
64937;SHT30;51452;47.698;19.050;2022-08-03T02:13:26;22.90;66.31
64937;SHT30;51452;47.698;19.050;2022-08-03T02:15:53;22.83;65.77
64937;SHT30;51452;47.698;19.050;2022-08-03T02:18:20;22.78;65.69
64937;SHT30;51452;47.698;19.050;2022-08-03T02:20:47;22.77;66.04
64937;SHT30;51452;47.698;19.050;2022-08-03T02:23:15;22.71;65.94
64937;SHT30;51452;47.698;19.050;2022-08-03T02:25:44;22.67;65.66
64937;SHT30;51452;47.698;19.050;2022-08-03T02:28:16;22.67;65.71
64937;SHT30;51452;47.698;19.050;2022-08-03T02:30:45;22.60;66.32
64937;SHT30;51452;47.698;19.050;2022-08-03T02:33:17;22.57;65.17
64937;SHT30;51452;47.698;19.050;2022-08-03T02:35:46;22.56;66.04
64937;SHT30;51452;47.698;19.050;2022-08-03T02:38:14;22.50;65.75
64937;SHT30;51452;47.698;19.050;2022-08-03T02:40:42;22.50;64.72
64937;SHT30;51452;47.698;19.050;2022-08-03T02:43:11;22.45;65.14
64937;SHT30;51452;47.698;19.050;2022-08-03T02:45:43;22.40;64.85
64937;SHT30;51452;47.698;19.050;2022-08-03T02:48:10;22.36;64.55
64937;SHT30;51452;47.698;19.050;2022-08-03T02:50:38;22.33;65.26
64937;SHT30;51452;47.698;19.050;2022-08-03T02:53:05;22.23;65.40
64937;SHT30;51452;47.698;19.050;2022-08-03T02:55:34;22.20;66.61
64937;SHT30;51452;47.698;19.050;2022-08-03T02:58:02;22.19;66.65
64937;SHT30;51452;47.698;19.050;2022-08-03T03:00:30;22.10;66.79
64937;SHT30;51452;47.698;19.050;2022-08-03T03:03:01;22.10;66.61
64937;SHT30;51452;47.698;19.050;2022-08-03T03:05:27;22.08;66.61
64937;SHT30;51452;47.698;19.050;2022-08-03T03:07:54;22.08;66.81
64937;SHT30;51452;47.698;19.050;2022-08-03T03:10:21;22.08;66.51
64937;SHT30;51452;47.698;19.050;2022-08-03T03:12:49;22.06;65.51
64937;SHT30;51452;47.698;19.050;2022-08-03T03:15:15;22.06;66.63
64937;SHT30;51452;47.698;19.050;2022-08-03T03:17:42;22.08;66.41
64937;SHT30;51452;47.698;19.050;2022-08-03T03:20:08;22.05;65.38
64937;SHT30;51452;47.698;19.050;2022-08-03T03:22:34;21.99;65.23
64937;SHT30;51452;47.698;19.050;2022-08-03T03:25:00;21.99;64.93
64937;SHT30;51452;47.698;19.050;2022-08-03T03:27:26;21.99;65.29
64937;SHT30;51452;47.698;19.050;2022-08-03T03:29:52;21.99;64.67
64937;SHT30;51452;47.698;19.050;2022-08-03T03:32:18;21.95;64.59
64937;SHT30;51452;47.698;19.050;2022-08-03T03:34:43;21.94;64.71
64937;SHT30;51452;47.698;19.050;2022-08-03T03:37:09;22.04;64.78
64937;SHT30;51452;47.698;19.050;2022-08-03T03:39:35;22.06;65.89
64937;SHT30;51452;47.698;19.050;2022-08-03T03:42:01;22.12;66.02
64937;SHT30;51452;47.698;19.050;2022-08-03T03:44:27;22.13;66.56
64937;SHT30;51452;47.698;19.050;2022-08-03T03:46:54;22.05;66.70
64937;SHT30;51452;47.698;19.050;2022-08-03T03:49:19;22.01;66.92
64937;SHT30;51452;47.698;19.050;2022-08-03T03:51:45;22.04;67.21
64937;SHT30;51452;47.698;19.050;2022-08-03T03:54:10;22.02;67.49
64937;SHT30;51452;47.698;19.050;2022-08-03T03:56:36;22.04;66.83
64937;SHT30;51452;47.698;19.050;2022-08-03T03:59:01;22.06;66.62
64937;SHT30;51452;47.698;19.050;2022-08-03T04:01:27;22.09;67.39
64937;SHT30;51452;47.698;19.050;2022-08-03T04:03:52;22.06;67.45
64937;SHT30;51452;47.698;19.050;2022-08-03T04:06:18;22.10;67.39
64937;SHT30;51452;47.698;19.050;2022-08-03T04:09:02;22.09;67.69
64937;SHT30;51452;47.698;19.050;2022-08-03T04:11:51;22.04;67.73
64937;SHT30;51452;47.698;19.050;2022-08-03T04:14:26;22.05;68.24
64937;SHT30;51452;47.698;19.050;2022-08-03T04:16:55;22.05;68.33
64937;SHT30;51452;47.698;19.050;2022-08-03T04:19:36;22.04;68.56
64937;SHT30;51452;47.698;19.050;2022-08-03T04:22:05;22.08;68.62
64937;SHT30;51452;47.698;19.050;2022-08-03T04:24:40;22.10;68.57
64937;SHT30;51452;47.698;19.050;2022-08-03T04:27:10;22.19;68.44
64937;SHT30;51452;47.698;19.050;2022-08-03T04:29:39;22.22;69.23
64937;SHT30;51452;47.698;19.050;2022-08-03T04:32:06;22.28;69.29
64937;SHT30;51452;47.698;19.050;2022-08-03T04:34:33;22.30;69.50
64937;SHT30;51452;47.698;19.050;2022-08-03T04:37:00;22.37;69.53
64937;SHT30;51452;47.698;19.050;2022-08-03T04:39:29;22.43;69.61
64937;SHT30;51452;47.698;19.050;2022-08-03T04:41:58;22.52;69.88
64937;SHT30;51452;47.698;19.050;2022-08-03T04:44:25;22.61;69.75
64937;SHT30;51452;47.698;19.050;2022-08-03T04:46:52;22.70;69.66
64937;SHT30;51452;47.698;19.050;2022-08-03T04:49:19;22.80;69.81
64937;SHT30;51452;47.698;19.050;2022-08-03T04:51:46;22.90;69.75
64937;SHT30;51452;47.698;19.050;2022-08-03T04:54:13;22.98;69.54
64937;SHT30;51452;47.698;19.050;2022-08-03T04:56:39;23.07;68.88
64937;SHT30;51452;47.698;19.050;2022-08-03T04:59:06;23.14;68.66
64937;SHT30;51452;47.698;19.050;2022-08-03T05:01:31;23.27;67.72
64937;SHT30;51452;47.698;19.050;2022-08-03T05:03:56;23.34;68.24
64937;SHT30;51452;47.698;19.050;2022-08-03T05:06:22;23.44;66.68
64937;SHT30;51452;47.698;19.050;2022-08-03T05:08:47;23.54;65.66
64937;SHT30;51452;47.698;19.050;2022-08-03T05:11:14;23.65;65.80
64937;SHT30;51452;47.698;19.050;2022-08-03T05:13:40;23.67;64.63
64937;SHT30;51452;47.698;19.050;2022-08-03T05:16:05;23.72;64.32
64937;SHT30;51452;47.698;19.050;2022-08-03T05:18:30;23.75;64.02
64937;SHT30;51452;47.698;19.050;2022-08-03T05:20:56;23.82;63.38
64937;SHT30;51452;47.698;19.050;2022-08-03T05:23:21;23.83;63.43
64937;SHT30;51452;47.698;19.050;2022-08-03T05:25:47;23.93;64.23
64937;SHT30;51452;47.698;19.050;2022-08-03T05:28:12;23.95;62.19
64937;SHT30;51452;47.698;19.050;2022-08-03T05:30:38;24.00;61.87
64937;SHT30;51452;47.698;19.050;2022-08-03T05:33:03;24.07;61.08
64937;SHT30;51452;47.698;19.050;2022-08-03T05:35:30;24.09;61.04
64937;SHT30;51452;47.698;19.050;2022-08-03T05:37:55;24.13;60.84
64937;SHT30;51452;47.698;19.050;2022-08-03T05:40:21;24.12;61.20
64937;SHT30;51452;47.698;19.050;2022-08-03T05:42:46;24.23;61.91
64937;SHT30;51452;47.698;19.050;2022-08-03T05:45:14;24.28;61.63
64937;SHT30;51452;47.698;19.050;2022-08-03T05:47:42;24.40;60.71
64937;SHT30;51452;47.698;19.050;2022-08-03T05:50:09;24.45;60.76
64937;SHT30;51452;47.698;19.050;2022-08-03T05:52:35;24.53;60.96
64937;SHT30;51452;47.698;19.050;2022-08-03T05:55:00;24.63;61.50
64937;SHT30;51452;47.698;19.050;2022-08-03T05:57:25;24.61;60.18
64937;SHT30;51452;47.698;19.050;2022-08-03T05:59:51;24.67;60.34
64937;SHT30;51452;47.698;19.050;2022-08-03T06:02:16;24.74;60.49
64937;SHT30;51452;47.698;19.050;2022-08-03T06:04:41;24.82;60.54
64937;SHT30;51452;47.698;19.050;2022-08-03T06:07:07;24.89;60.41
64937;SHT30;51452;47.698;19.050;2022-08-03T06:09:32;24.98;60.44
64937;SHT30;51452;47.698;19.050;2022-08-03T06:11:58;25.05;60.26
64937;SHT30;51452;47.698;19.050;2022-08-03T06:14:23;25.12;60.73
64937;SHT30;51452;47.698;19.050;2022-08-03T06:16:49;25.19;60.96
64937;SHT30;51452;47.698;19.050;2022-08-03T06:19:14;25.20;60.81
64937;SHT30;51452;47.698;19.050;2022-08-03T06:21:39;25.26;60.73
64937;SHT30;51452;47.698;19.050;2022-08-03T06:24:05;25.25;60.62
64937;SHT30;51452;47.698;19.050;2022-08-03T06:26:31;25.27;61.27
64937;SHT30;51452;47.698;19.050;2022-08-03T06:28:56;25.35;61.09
64937;SHT30;51452;47.698;19.050;2022-08-03T06:31:24;25.32;62.31
64937;SHT30;51452;47.698;19.050;2022-08-03T06:33:50;25.39;61.11
64937;SHT30;51452;47.698;19.050;2022-08-03T06:36:16;25.35;60.23
64937;SHT30;51452;47.698;19.050;2022-08-03T06:38:41;25.43;58.06
64937;SHT30;51452;47.698;19.050;2022-08-03T06:41:06;25.46;57.88
64937;SHT30;51452;47.698;19.050;2022-08-03T06:43:32;25.51;57.91
64937;SHT30;51452;47.698;19.050;2022-08-03T06:46:02;25.53;57.53
64937;SHT30;51452;47.698;19.050;2022-08-03T06:48:28;25.66;56.98
64937;SHT30;51452;47.698;19.050;2022-08-03T06:50:54;25.81;56.29
64937;SHT30;51452;47.698;19.050;2022-08-03T06:53:19;25.67;55.03
64937;SHT30;51452;47.698;19.050;2022-08-03T06:55:44;25.70;53.89
64937;SHT30;51452;47.698;19.050;2022-08-03T06:58:10;25.74;55.13
64937;SHT30;51452;47.698;19.050;2022-08-03T07:00:35;25.93;54.69
64937;SHT30;51452;47.698;19.050;2022-08-03T07:03:01;26.02;55.31
64937;SHT30;51452;47.698;19.050;2022-08-03T07:05:27;25.97;54.32
64937;SHT30;51452;47.698;19.050;2022-08-03T07:07:56;26.08;53.79
64937;SHT30;51452;47.698;19.050;2022-08-03T07:10:26;26.24;53.80
64937;SHT30;51452;47.698;19.050;2022-08-03T07:12:51;26.22;53.38
64937;SHT30;51452;47.698;19.050;2022-08-03T07:15:17;26.22;51.63
64937;SHT30;51452;47.698;19.050;2022-08-03T07:17:42;26.41;52.66
64937;SHT30;51452;47.698;19.050;2022-08-03T07:20:08;26.46;52.47
64937;SHT30;51452;47.698;19.050;2022-08-03T07:22:34;26.46;52.35
64937;SHT30;51452;47.698;19.050;2022-08-03T07:25:00;26.55;50.35
64937;SHT30;51452;47.698;19.050;2022-08-03T07:27:26;26.55;52.09
64937;SHT30;51452;47.698;19.050;2022-08-03T07:29:52;26.59;49.98
64937;SHT30;51452;47.698;19.050;2022-08-03T07:32:18;26.62;50.59
64937;SHT30;51452;47.698;19.050;2022-08-03T07:34:43;26.62;50.34
64937;SHT30;51452;47.698;19.050;2022-08-03T07:37:08;26.65;50.13
64937;SHT30;51452;47.698;19.050;2022-08-03T07:39:34;26.79;50.15
64937;SHT30;51452;47.698;19.050;2022-08-03T07:41:59;26.71;51.56
64937;SHT30;51452;47.698;19.050;2022-08-03T07:44:24;26.87;52.00
64937;SHT30;51452;47.698;19.050;2022-08-03T07:46:50;26.66;51.11
64937;SHT30;51452;47.698;19.050;2022-08-03T07:49:15;26.78;51.48
64937;SHT30;51452;47.698;19.050;2022-08-03T07:51:41;26.89;50.99
64937;SHT30;51452;47.698;19.050;2022-08-03T07:54:06;26.97;49.38
64937;SHT30;51452;47.698;19.050;2022-08-03T07:56:34;27.06;49.02
64937;SHT30;51452;47.698;19.050;2022-08-03T07:59:00;27.06;48.57
64937;SHT30;51452;47.698;19.050;2022-08-03T08:01:27;27.03;49.15
64937;SHT30;51452;47.698;19.050;2022-08-03T08:03:52;27.11;48.48
64937;SHT30;51452;47.698;19.050;2022-08-03T08:06:17;27.03;48.37
64937;SHT30;51452;47.698;19.050;2022-08-03T08:08:43;27.18;49.92
64937;SHT30;51452;47.698;19.050;2022-08-03T08:11:09;27.26;48.83
64937;SHT30;51452;47.698;19.050;2022-08-03T08:13:34;27.11;48.35
64937;SHT30;51452;47.698;19.050;2022-08-03T08:16:01;27.24;48.49
64937;SHT30;51452;47.698;19.050;2022-08-03T08:18:27;27.29;47.93
64937;SHT30;51452;47.698;19.050;2022-08-03T08:20:54;27.34;46.76
64937;SHT30;51452;47.698;19.050;2022-08-03T08:23:19;27.38;47.04
64937;SHT30;51452;47.698;19.050;2022-08-03T08:25:51;27.30;49.12
64937;SHT30;51452;47.698;19.050;2022-08-03T08:28:17;27.37;49.06
64937;SHT30;51452;47.698;19.050;2022-08-03T08:30:43;27.35;48.65
64937;SHT30;51452;47.698;19.050;2022-08-03T08:33:09;27.29;48.60
64937;SHT30;51452;47.698;19.050;2022-08-03T08:35:34;27.37;49.16
64937;SHT30;51452;47.698;19.050;2022-08-03T08:37:59;27.20;47.12
64937;SHT30;51452;47.698;19.050;2022-08-03T08:40:26;27.17;48.46
64937;SHT30;51452;47.698;19.050;2022-08-03T08:42:51;26.95;48.34
64937;SHT30;51452;47.698;19.050;2022-08-03T08:45:17;27.24;48.57
64937;SHT30;51452;47.698;19.050;2022-08-03T08:47:45;27.41;49.02
64937;SHT30;51452;47.698;19.050;2022-08-03T08:50:11;27.34;46.69
64937;SHT30;51452;47.698;19.050;2022-08-03T08:52:39;27.44;48.82
64937;SHT30;51452;47.698;19.050;2022-08-03T08:55:07;27.48;46.65
64937;SHT30;51452;47.698;19.050;2022-08-03T08:57:40;27.72;47.92
64937;SHT30;51452;47.698;19.050;2022-08-03T09:00:08;27.84;47.41
64937;SHT30;51452;47.698;19.050;2022-08-03T09:02:37;27.91;46.63
64937;SHT30;51452;47.698;19.050;2022-08-03T09:05:03;27.85;45.91
64937;SHT30;51452;47.698;19.050;2022-08-03T09:07:28;27.94;46.04
64937;SHT30;51452;47.698;19.050;2022-08-03T09:09:54;27.78;46.25
64937;SHT30;51452;47.698;19.050;2022-08-03T09:12:20;27.88;46.14
64937;SHT30;51452;47.698;19.050;2022-08-03T09:14:45;27.86;46.44
64937;SHT30;51452;47.698;19.050;2022-08-03T09:17:11;27.85;45.36
64937;SHT30;51452;47.698;19.050;2022-08-03T09:19:36;27.95;46.69
64937;SHT30;51452;47.698;19.050;2022-08-03T09:22:15;28.01;46.74
64937;SHT30;51452;47.698;19.050;2022-08-03T09:24:59;28.06;46.28
64937;SHT30;51452;47.698;19.050;2022-08-03T09:27:25;28.17;46.63
64937;SHT30;51452;47.698;19.050;2022-08-03T09:29:52;28.29;45.91
64937;SHT30;51452;47.698;19.050;2022-08-03T09:32:22;28.26;46.57
64937;SHT30;51452;47.698;19.050;2022-08-03T09:34:50;28.40;45.91
64937;SHT30;51452;47.698;19.050;2022-08-03T09:37:18;28.43;45.23
64937;SHT30;51452;47.698;19.050;2022-08-03T09:39:44;28.27;45.01
64937;SHT30;51452;47.698;19.050;2022-08-03T09:44:38;28.47;44.12
64937;SHT30;51452;47.698;19.050;2022-08-03T09:47:04;28.56;44.58
64937;SHT30;51452;47.698;19.050;2022-08-03T09:49:31;28.49;42.95
64937;SHT30;51452;47.698;19.050;2022-08-03T09:52:00;28.66;42.10
64937;SHT30;51452;47.698;19.050;2022-08-03T09:54:26;28.73;41.72
64937;SHT30;51452;47.698;19.050;2022-08-03T09:56:52;28.73;41.94
64937;SHT30;51452;47.698;19.050;2022-08-03T09:59:28;28.76;40.17
64937;SHT30;51452;47.698;19.050;2022-08-03T10:01:55;28.73;41.67
64937;SHT30;51452;47.698;19.050;2022-08-03T10:04:21;28.77;40.72
64937;SHT30;51452;47.698;19.050;2022-08-03T10:09:30;28.77;41.52
64937;SHT30;51452;47.698;19.050;2022-08-03T10:11:56;28.76;43.84
64937;SHT30;51452;47.698;19.050;2022-08-03T10:14:21;28.93;43.25
64937;SHT30;51452;47.698;19.050;2022-08-03T10:16:48;28.98;42.01
64937;SHT30;51452;47.698;19.050;2022-08-03T10:19:14;29.08;42.78
64937;SHT30;51452;47.698;19.050;2022-08-03T10:21:46;28.98;43.46
64937;SHT30;51452;47.698;19.050;2022-08-03T10:24:16;29.12;43.29
64937;SHT30;51452;47.698;19.050;2022-08-03T10:26:43;29.15;41.67
64937;SHT30;51452;47.698;19.050;2022-08-03T10:29:11;29.11;42.21
64937;SHT30;51452;47.698;19.050;2022-08-03T10:31:39;28.90;42.57
64937;SHT30;51452;47.698;19.050;2022-08-03T10:34:10;28.83;44.41
64937;SHT30;51452;47.698;19.050;2022-08-03T10:36:39;28.88;43.92
64937;SHT30;51452;47.698;19.050;2022-08-03T10:39:05;28.97;44.46
64937;SHT30;51452;47.698;19.050;2022-08-03T10:41:33;28.98;44.37
64937;SHT30;51452;47.698;19.050;2022-08-03T10:44:07;29.11;43.10
64937;SHT30;51452;47.698;19.050;2022-08-03T10:46:34;29.14;41.29
64937;SHT30;51452;47.698;19.050;2022-08-03T10:49:01;29.25;42.34
64937;SHT30;51452;47.698;19.050;2022-08-03T10:51:27;29.26;42.46
64937;SHT30;51452;47.698;19.050;2022-08-03T10:53:57;29.38;42.49
64937;SHT30;51452;47.698;19.050;2022-08-03T10:59:16;29.54;43.21
64937;SHT30;51452;47.698;19.050;2022-08-03T11:01:49;29.48;42.85
64937;SHT30;51452;47.698;19.050;2022-08-03T11:04:16;29.61;42.36
64937;SHT30;51452;47.698;19.050;2022-08-03T11:06:43;29.67;40.28
64937;SHT30;51452;47.698;19.050;2022-08-03T11:11:41;29.65;40.55
64937;SHT30;51452;47.698;19.050;2022-08-03T11:14:11;29.55;41.21
64937;SHT30;51452;47.698;19.050;2022-08-03T11:16:39;29.59;40.16
64937;SHT30;51452;47.698;19.050;2022-08-03T11:19:10;29.61;40.29
64937;SHT30;51452;47.698;19.050;2022-08-03T11:27:19;29.75;40.21
64937;SHT30;51452;47.698;19.050;2022-08-03T11:37:32;29.99;39.89
64937;SHT30;51452;47.698;19.050;2022-08-03T11:39:57;29.97;39.81
64937;SHT30;51452;47.698;19.050;2022-08-03T11:44:53;30.12;39.13
64937;SHT30;51452;47.698;19.050;2022-08-03T11:47:23;29.99;37.52
64937;SHT30;51452;47.698;19.050;2022-08-03T11:49:53;30.10;36.48
64937;SHT30;51452;47.698;19.050;2022-08-03T11:52:18;30.25;38.63
64937;SHT30;51452;47.698;19.050;2022-08-03T11:54:44;30.20;38.23
64937;SHT30;51452;47.698;19.050;2022-08-03T11:57:10;30.38;38.94
64937;SHT30;51452;47.698;19.050;2022-08-03T11:59:36;30.51;37.92
64937;SHT30;51452;47.698;19.050;2022-08-03T12:02:06;30.63;38.44
64937;SHT30;51452;47.698;19.050;2022-08-03T12:04:51;30.64;36.52
64937;SHT30;51452;47.698;19.050;2022-08-03T12:07:17;30.64;35.73
64937;SHT30;51452;47.698;19.050;2022-08-03T12:10:03;30.72;37.48
64937;SHT30;51452;47.698;19.050;2022-08-03T12:12:29;30.67;37.53
64937;SHT30;51452;47.698;19.050;2022-08-03T12:14:54;30.65;37.61
64937;SHT30;51452;47.698;19.050;2022-08-03T12:17:19;30.49;37.53
64937;SHT30;51452;47.698;19.050;2022-08-03T12:19:45;30.47;38.02
64937;SHT30;51452;47.698;19.050;2022-08-03T12:22:11;30.33;37.08
64937;SHT30;51452;47.698;19.050;2022-08-03T12:24:41;30.45;37.51
64937;SHT30;51452;47.698;19.050;2022-08-03T12:27:07;30.49;36.73
64937;SHT30;51452;47.698;19.050;2022-08-03T12:29:32;30.53;35.17
64937;SHT30;51452;47.698;19.050;2022-08-03T12:31:57;30.49;36.25
64937;SHT30;51452;47.698;19.050;2022-08-03T12:34:23;30.58;37.47
64937;SHT30;51452;47.698;19.050;2022-08-03T12:36:53;30.58;36.37
64937;SHT30;51452;47.698;19.050;2022-08-03T12:39:25;30.61;35.62
64937;SHT30;51452;47.698;19.050;2022-08-03T12:41:53;30.54;37.56
64937;SHT30;51452;47.698;19.050;2022-08-03T12:44:28;30.65;36.05
64937;SHT30;51452;47.698;19.050;2022-08-03T12:46:57;30.75;34.84
64937;SHT30;51452;47.698;19.050;2022-08-03T12:49:22;30.82;34.76
64937;SHT30;51452;47.698;19.050;2022-08-03T12:54:18;31.16;34.65
64937;SHT30;51452;47.698;19.050;2022-08-03T12:57:04;31.05;33.22
64937;SHT30;51452;47.698;19.050;2022-08-03T12:59:34;31.15;34.88
64937;SHT30;51452;47.698;19.050;2022-08-03T13:02:00;31.21;35.45
64937;SHT30;51452;47.698;19.050;2022-08-03T13:07:07;31.34;34.98
64937;SHT30;51452;47.698;19.050;2022-08-03T13:12:16;31.46;33.27
64937;SHT30;51452;47.698;19.050;2022-08-03T13:14:43;31.49;32.75
64937;SHT30;51452;47.698;19.050;2022-08-03T13:17:09;31.46;32.13
64937;SHT30;51452;47.698;19.050;2022-08-03T13:19:35;31.50;35.29
64937;SHT30;51452;47.698;19.050;2022-08-03T13:22:20;31.32;33.53
64937;SHT30;51452;47.698;19.050;2022-08-03T13:24:48;31.25;32.64
64937;SHT30;51452;47.698;19.050;2022-08-03T13:27:14;31.27;33.95
64937;SHT30;51452;47.698;19.050;2022-08-03T13:29:40;31.23;33.46
64937;SHT30;51452;47.698;19.050;2022-08-03T13:32:07;31.25;33.93
64937;SHT30;51452;47.698;19.050;2022-08-03T13:34:33;31.21;33.41
64937;SHT30;51452;47.698;19.050;2022-08-03T13:36:59;31.42;34.35
64937;SHT30;51452;47.698;19.050;2022-08-03T13:39:24;31.51;33.94
64937;SHT30;51452;47.698;19.050;2022-08-03T13:41:49;31.56;31.24
64937;SHT30;51452;47.698;19.050;2022-08-03T13:44:15;31.69;31.87
64937;SHT30;51452;47.698;19.050;2022-08-03T13:46:40;31.74;31.57
64937;SHT30;51452;47.698;19.050;2022-08-03T13:49:06;31.69;30.44
64937;SHT30;51452;47.698;19.050;2022-08-03T13:51:33;31.83;31.33
64937;SHT30;51452;47.698;19.050;2022-08-03T13:53:58;31.77;30.50
64937;SHT30;51452;47.698;19.050;2022-08-03T13:56:27;31.78;29.82
64937;SHT30;51452;47.698;19.050;2022-08-03T13:58:53;31.67;33.92
64937;SHT30;51452;47.698;19.050;2022-08-03T14:01:19;31.36;35.08
64937;SHT30;51452;47.698;19.050;2022-08-03T14:03:44;31.21;34.77
64937;SHT30;51452;47.698;19.050;2022-08-03T14:06:12;31.36;35.40
64937;SHT30;51452;47.698;19.050;2022-08-03T14:08:38;31.56;34.77
64937;SHT30;51452;47.698;19.050;2022-08-03T14:11:03;31.42;35.10
64937;SHT30;51452;47.698;19.050;2022-08-03T14:13:29;31.49;34.38
64937;SHT30;51452;47.698;19.050;2022-08-03T14:15:54;31.23;34.42
64937;SHT30;51452;47.698;19.050;2022-08-03T14:18:20;31.13;34.55
64937;SHT30;51452;47.698;19.050;2022-08-03T14:20:46;31.13;35.50
64937;SHT30;51452;47.698;19.050;2022-08-03T14:23:11;31.05;35.61
64937;SHT30;51452;47.698;19.050;2022-08-03T14:25:37;31.09;35.42
64937;SHT30;51452;47.698;19.050;2022-08-03T14:28:02;30.98;35.59
64937;SHT30;51452;47.698;19.050;2022-08-03T14:30:28;31.05;35.71
64937;SHT30;51452;47.698;19.050;2022-08-03T14:32:53;31.19;36.16
64937;SHT30;51452;47.698;19.050;2022-08-03T14:35:18;31.18;35.29
64937;SHT30;51452;47.698;19.050;2022-08-03T14:37:44;31.27;35.27
64937;SHT30;51452;47.698;19.050;2022-08-03T14:40:09;31.37;35.81
64937;SHT30;51452;47.698;19.050;2022-08-03T14:42:35;31.19;34.85
64937;SHT30;51452;47.698;19.050;2022-08-03T14:45:00;31.13;35.54
64937;SHT30;51452;47.698;19.050;2022-08-03T14:47:25;31.12;35.38
64937;SHT30;51452;47.698;19.050;2022-08-03T14:49:51;31.00;35.71
64937;SHT30;51452;47.698;19.050;2022-08-03T14:52:16;31.15;35.79
64937;SHT30;51452;47.698;19.050;2022-08-03T14:54:41;31.15;36.66
64937;SHT30;51452;47.698;19.050;2022-08-03T14:57:07;30.91;35.68
64937;SHT30;51452;47.698;19.050;2022-08-03T14:59:32;30.89;35.65
64937;SHT30;51452;47.698;19.050;2022-08-03T15:01:57;30.86;36.23
64937;SHT30;51452;47.698;19.050;2022-08-03T15:04:23;30.86;35.30
64937;SHT30;51452;47.698;19.050;2022-08-03T15:06:48;30.84;36.00
64937;SHT30;51452;47.698;19.050;2022-08-03T15:09:14;30.86;35.85
64937;SHT30;51452;47.698;19.050;2022-08-03T15:11:39;30.74;35.33
64937;SHT30;51452;47.698;19.050;2022-08-03T15:14:04;30.63;36.71
64937;SHT30;51452;47.698;19.050;2022-08-03T15:16:30;30.45;36.88
64937;SHT30;51452;47.698;19.050;2022-08-03T15:18:56;30.60;36.60
64937;SHT30;51452;47.698;19.050;2022-08-03T15:21:21;30.75;35.75
64937;SHT30;51452;47.698;19.050;2022-08-03T15:23:47;30.82;36.75
64937;SHT30;51452;47.698;19.050;2022-08-03T15:26:12;30.78;36.41
64937;SHT30;51452;47.698;19.050;2022-08-03T15:28:37;30.78;35.70
64937;SHT30;51452;47.698;19.050;2022-08-03T15:31:03;30.58;36.91
64937;SHT30;51452;47.698;19.050;2022-08-03T15:33:29;30.55;35.83
64937;SHT30;51452;47.698;19.050;2022-08-03T15:35:55;30.41;36.36
64937;SHT30;51452;47.698;19.050;2022-08-03T15:38:21;30.65;37.52
64937;SHT30;51452;47.698;19.050;2022-08-03T15:40:49;30.65;36.27
64937;SHT30;51452;47.698;19.050;2022-08-03T15:43:14;30.64;36.33
64937;SHT30;51452;47.698;19.050;2022-08-03T15:45:40;30.58;35.30
64937;SHT30;51452;47.698;19.050;2022-08-03T15:48:07;30.79;35.22
64937;SHT30;51452;47.698;19.050;2022-08-03T15:50:32;30.74;36.13
64937;SHT30;51452;47.698;19.050;2022-08-03T15:52:57;30.64;35.52
64937;SHT30;51452;47.698;19.050;2022-08-03T15:55:23;30.75;34.97
64937;SHT30;51452;47.698;19.050;2022-08-03T15:57:48;30.51;35.37